11:18
Airports
Links
Donate
Help keep this website running!
PayPal
Bitcoin
METAR
EDLP 111050Z 09010KT 7000 -RASN BKN008 00/M01 Q0982
Current Weather Conditions at EDLP
IFR 10:50:00 11-12-17
Altimeter:29.00 hg
Temp:0.0°c 32°f
Dew point:-1.0°c 30°f
Wind:10 knots, 11.5 mph, 5 m/s, from 90°
Visibility:4.35 statute miles
800(BKN) Broken
Past METAR reports
IFR 10:20:00 11-12-17
Altimeter:29.03 hg
Temp:°c 32°f
Dew point:°c 32°f
Wind: knots, 0 mph, 0 m/s,
Visibility:3.11 statute miles
800(BKN) Broken
EDLP 111020Z /////KT 5000 -SN BKN008 ///// Q0983
IFR 09:50:00 11-12-17
Altimeter:29.03 hg
Temp:°c 32°f
Dew point:°c 32°f
Wind: knots, 0 mph, 0 m/s,
Visibility:2.49 statute miles
1100(BKN) Broken
EDLP 110950Z /////KT 4000 -SN BR BKN011 ///// Q0983
IFR 09:20:00 11-12-17
Altimeter:29.06 hg
Temp:0.0°c 32°f
Dew point:-1.0°c 30°f
Wind:7 knots, 8.1 mph, 4 m/s, from 90°
Visibility:1.24 statute miles
2300(BKN) Broken
EDLP 110920Z 09007KT 2000 -SN BR BKN023 00/M01 Q0984
VFR 08:50:00 11-12-17
Altimeter:29.06 hg
Temp:0.0°c 32°f
Dew point:-2.0°c 28°f
Wind:6 knots, 6.9 mph, 3 m/s, from 90°
Visibility:6.21 statute miles
4800(BKN) Broken
EDLP 110850Z 09006KT 9999 BKN048 00/M02 Q0984
VFR 08:20:00 11-12-17
Altimeter:29.06 hg
Temp:0.0°c 32°f
Dew point:-2.0°c 28°f
Wind:5 knots, 5.8 mph, 3 m/s, from 100°
Visibility:6.21 statute miles
8200(BKN) Broken
1900(SCT) Scattered
EDLP 110820Z 10005KT 9999 SCT019 BKN082 M00/M02 Q0984
MVFR 07:50:00 11-12-17
Altimeter:29.06 hg
Temp:0.0°c 32°f
Dew point:-2.0°c 28°f
Wind:5 knots, 5.8 mph, 3 m/s, from 90°
Visibility:6.21 statute miles
1900(BKN) Broken
EDLP 110750Z 09005KT 9999 BKN019 M00/M02 Q0984
TAF
TAF EDLP 110500Z 1106/1206 VRB03KT 9999 BKN020 BECMG 1106/1109 10010KT TEMPO 1110/1115 2000 SNRA BKN013 PROB30 TEMPO 1110/1114 1400 SN BKN005 BECMG 1114/1117 17012KT TEMPO 1115/1124 4000 -RASN BKN013 PROB30 TEMPO 1118/1206 18015G25KT TEMPO 1200/1206 3000 -SN BKN005
Forecast at EDLP
BECMG 06:00 11-12-17 to 14:00 11-12-17
Wind:10 Knots from 100°
Visibility:6.21 statute miles
2000BKN Broken
06:00 11-12-17 to 06:00 12-12-17
Wind:3 Knots from 360°
Visibility:6.21 statute miles
2000BKN Broken
TEMPO 10:00 11-12-17 to 14:00 11-12-17
30% SN
Visibility:0.87 statute miles
500BKN Broken
TEMPO 10:00 11-12-17 to 15:00 11-12-17
SN RA
Visibility:1.24 statute miles
1300BKN Broken
BECMG 14:00 11-12-17 to 06:00 12-12-17
Wind:12 Knots from 170°
Visibility:6.21 statute miles
2000BKN Broken
TEMPO 15:00 11-12-17 to 00:00 12-12-17
-RA -SN
Visibility:2.49 statute miles
1300BKN Broken
TEMPO 18:00 11-12-17 to 06:00 12-12-17
30%
Wind:15 Knots from 180°
TEMPO 00:00 12-12-17 to 06:00 12-12-17
-SN
Visibility:1.86 statute miles
500BKN Broken